Time;durP1;ratioP1;P1;durP2;ratioP2;P2;SDS_P1;SDS_P2;PMS_P1;PMS_P2;Temp;Humidity;BMP_temperature;BMP_pressure;BME280_temperature;BME280_humidity;BME280_pressure;Samples;Min_cycle;Max_cycle;Signal;HPM_P1;HPM_P2
2021/03/01 00:00:29;;;;;;;22.00;11.23;;;4.70;99.90;;;;;;5063894;28;20669;-58
2021/03/01 00:02:56;;;;;;;21.53;10.40;;;4.60;99.90;;;;;;5064774;28;20277;-58
2021/03/01 00:05:25;;;;;;;17.07;7.50;;;4.60;99.90;;;;;;5049287;28;20479;-58
2021/03/01 00:07:52;;;;;;;17.00;7.50;;;4.60;99.90;;;;;;5036743;28;20873;-58
2021/03/01 00:10:19;;;;;;;15.90;8.13;;;4.60;99.90;;;;;;5033752;28;20904;-58
2021/03/01 00:12:47;;;;;;;16.37;7.87;;;4.50;99.90;;;;;;5036898;28;20565;-58
2021/03/01 00:15:18;;;;;;;15.87;7.13;;;4.50;99.90;;;;;;5038298;28;20574;-58
2021/03/01 00:17:46;;;;;;;12.83;7.03;;;4.50;99.90;;;;;;5047532;28;20474;-58
2021/03/01 00:20:16;;;;;;;12.53;6.47;;;4.50;99.90;;;;;;5039776;28;20520;-58
2021/03/01 00:22:45;;;;;;;15.03;6.80;;;4.40;99.90;;;;;;5051598;28;20326;-58
2021/03/01 00:25:14;;;;;;;14.10;7.27;;;4.40;99.90;;;;;;5044164;28;21015;-57
2021/03/01 00:27:43;;;;;;;15.53;7.50;;;4.50;99.90;;;;;;5044463;28;20485;-58
2021/03/01 00:30:13;;;;;;;15.20;7.87;;;4.50;99.90;;;;;;5028117;28;20480;-58
2021/03/01 00:32:40;;;;;;;17.70;8.13;;;4.50;99.90;;;;;;5024575;28;20485;-58
2021/03/01 00:35:11;;;;;;;16.07;7.87;;;4.50;99.90;;;;;;5024840;28;20982;-57
2021/03/01 00:37:39;;;;;;;18.70;7.93;;;4.50;99.90;;;;;;5018413;28;20479;-57
2021/03/01 00:40:08;;;;;;;19.60;8.60;;;4.60;99.90;;;;;;5023517;28;20471;-58
2021/03/01 00:42:35;;;;;;;19.53;8.50;;;4.50;99.90;;;;;;5024357;28;20322;-56
2021/03/01 00:45:06;;;;;;;16.63;8.50;;;4.50;99.90;;;;;;5024198;28;20483;-58
2021/03/01 00:47:34;;;;;;;16.47;8.70;;;4.50;99.90;;;;;;5024182;28;20631;-58
2021/03/01 00:50:01;;;;;;;16.33;8.33;;;4.60;99.90;;;;;;5024582;28;20500;-58
2021/03/01 00:52:30;;;;;;;16.13;8.30;;;4.50;99.90;;;;;;5025451;28;20257;-59
2021/03/01 00:54:58;;;;;;;17.13;8.20;;;4.50;99.90;;;;;;5028267;28;20487;-58
2021/03/01 00:57:26;;;;;;;19.53;8.80;;;4.50;99.90;;;;;;5027613;28;20483;-58
2021/03/01 01:00:07;;;;;;;17.73;8.33;;;4.50;99.90;;;;;;5028172;28;20672;-57
2021/03/01 01:02:37;;;;;;;18.03;8.53;;;4.50;99.90;;;;;;5065873;28;20694;-57
2021/03/01 01:05:34;;;;;;;15.17;8.27;;;4.50;99.90;;;;;;5037466;28;21042;-57
2021/03/01 01:08:04;;;;;;;17.70;8.00;;;4.50;99.90;;;;;;5020365;28;20585;-57
2021/03/01 01:10:31;;;;;;;18.30;7.90;;;4.50;99.90;;;;;;5024489;28;20571;-58
2021/03/01 01:12:58;;;;;;;16.70;8.40;;;4.40;99.90;;;;;;5027668;28;20485;-57
2021/03/01 01:15:27;;;;;;;18.97;8.33;;;4.40;99.90;;;;;;5020685;28;20522;-57
2021/03/01 01:17:58;;;;;;;17.17;8.17;;;4.40;99.90;;;;;;5042825;28;20492;-57
2021/03/01 01:20:26;;;;;;;18.47;8.73;;;4.40;99.90;;;;;;5027754;28;21032;-58
2021/03/01 01:22:53;;;;;;;20.87;8.20;;;4.40;99.90;;;;;;5027820;28;20882;-58
2021/03/01 01:25:21;;;;;;;20.13;8.90;;;4.40;99.90;;;;;;5032514;28;21021;-57
2021/03/01 01:27:49;;;;;;;19.33;8.73;;;4.40;99.90;;;;;;5027155;28;20898;-57
2021/03/01 01:30:20;;;;;;;17.47;8.23;;;4.40;99.90;;;;;;5027081;28;20914;-57
2021/03/01 01:32:48;;;;;;;17.13;8.10;;;4.40;99.90;;;;;;5030180;28;20596;-57
2021/03/01 01:35:17;;;;;;;18.73;8.33;;;4.40;99.90;;;;;;5037616;28;20246;-58
2021/03/01 01:37:44;;;;;;;17.77;7.37;;;4.40;99.90;;;;;;5046975;28;20542;-57
2021/03/01 01:40:16;;;;;;;14.50;7.23;;;4.40;99.90;;;;;;5047825;28;20826;-59
2021/03/01 01:42:44;;;;;;;19.07;7.40;;;4.40;99.90;;;;;;5046723;28;20578;-58
2021/03/01 01:45:15;;;;;;;14.67;6.63;;;4.30;99.90;;;;;;5047224;28;20477;-58
2021/03/01 01:47:43;;;;;;;13.93;6.87;;;4.30;99.90;;;;;;5046974;28;20587;-57
2021/03/01 01:50:13;;;;;;;14.17;6.50;;;4.30;99.90;;;;;;5047390;28;20314;-58
2021/03/01 01:52:44;;;;;;;14.53;6.87;;;4.20;99.90;;;;;;5042720;28;20483;-58
2021/03/01 01:55:13;;;;;;;11.33;6.33;;;4.30;99.90;;;;;;5027287;28;20479;-56
2021/03/01 01:57:42;;;;;;;17.47;7.73;;;4.20;99.90;;;;;;5026839;28;20918;-58
2021/03/01 02:00:22;;;;;;;15.73;6.67;;;4.20;99.90;;;;;;5030169;28;20489;-56
2021/03/01 02:02:59;;;;;;;14.73;6.90;;;4.20;99.90;;;;;;5030695;28;20498;-57
2021/03/01 02:05:28;;;;;;;16.97;7.00;;;4.20;99.90;;;;;;5041231;28;20884;-58
2021/03/01 02:08:01;;;;;;;14.53;7.17;;;4.20;99.90;;;;;;5038526;28;20483;-59
2021/03/01 02:10:35;;;;;;;16.47;7.23;;;4.30;99.90;;;;;;5038508;28;21127;-58
2021/03/01 02:13:18;;;;;;;12.97;6.93;;;4.20;99.90;;;;;;5046360;28;20586;-58
2021/03/01 02:15:53;;;;;;;17.57;7.80;;;4.30;99.90;;;;;;5046241;28;20896;-58
2021/03/01 02:18:20;;;;;;;17.23;8.10;;;4.30;99.90;;;;;;5049521;28;20477;-58
2021/03/01 02:20:51;;;;;;;15.80;8.27;;;4.20;99.90;;;;;;5056289;28;20914;-58
2021/03/01 02:23:20;;;;;;;15.83;7.67;;;4.20;99.90;;;;;;5056370;28;20915;-58
2021/03/01 02:25:53;;;;;;;17.13;8.20;;;4.20;99.90;;;;;;5055680;28;20827;-56
2021/03/01 02:28:23;;;;;;;18.33;7.87;;;4.20;99.90;;;;;;5035609;28;20797;-59
2021/03/01 02:30:55;;;;;;;17.67;7.43;;;4.20;99.90;;;;;;5033802;28;20588;-58
2021/03/01 02:33:26;;;;;;;15.80;7.27;;;4.20;99.90;;;;;;5036796;28;20481;-58
2021/03/01 02:35:58;;;;;;;16.43;7.43;;;4.20;99.90;;;;;;5037020;28;20486;-59
2021/03/01 02:38:29;;;;;;;16.13;8.03;;;4.30;99.90;;;;;;5026100;28;20486;-56
2021/03/01 02:40:59;;;;;;;14.67;7.83;;;4.30;99.90;;;;;;5026304;28;20479;-58
2021/03/01 02:43:29;;;;;;;18.40;8.10;;;4.20;99.90;;;;;;5035846;28;20476;-58
2021/03/01 02:45:59;;;;;;;15.70;7.33;;;4.20;99.90;;;;;;5057679;28;20560;-58
2021/03/01 02:48:28;;;;;;;14.20;7.67;;;4.10;99.90;;;;;;5066044;28;20493;-58
2021/03/01 02:50:57;;;;;;;12.83;6.87;;;4.10;99.90;;;;;;5066278;28;20568;-58
2021/03/01 02:53:29;;;;;;;13.93;7.70;;;4.10;99.90;;;;;;5056919;28;20595;-58
2021/03/01 02:55:57;;;;;;;14.57;7.50;;;4.10;99.90;;;;;;5045803;28;20520;-58
2021/03/01 02:58:29;;;;;;;12.60;6.77;;;4.10;99.90;;;;;;5045901;28;20776;-58
2021/03/01 03:00:59;;;;;;;14.17;6.87;;;4.10;99.90;;;;;;5038337;28;20493;-57
2021/03/01 03:03:29;;;;;;;14.50;7.00;;;4.00;99.90;;;;;;5035356;28;20498;-57
2021/03/01 03:05:57;;;;;;;15.37;7.40;;;4.00;99.90;;;;;;5041776;28;20493;-56
2021/03/01 03:08:25;;;;;;;15.47;7.97;;;4.10;99.90;;;;;;5026322;28;20509;-59
2021/03/01 03:10:54;;;;;;;19.83;8.93;;;4.10;99.90;;;;;;5025760;28;20548;-57
2021/03/01 03:13:22;;;;;;;15.17;7.77;;;4.00;99.90;;;;;;5042423;28;20551;-58
2021/03/01 03:15:53;;;;;;;14.13;7.17;;;4.00;99.90;;;;;;5045343;28;20494;-55
2021/03/01 03:18:27;;;;;;;16.10;8.15;;;4.00;99.90;;;;;;4783899;28;10000840;-57
2021/03/01 03:20:55;;;;;;;16.67;7.82;;;4.00;99.90;;;;;;1383414;28;10002009;-56
2021/03/01 03:23:23;;;;;;;13.20;7.23;;;4.00;99.90;;;;;;5014878;28;20734;-57
2021/03/01 03:25:51;;;;;;;12.60;6.77;;;4.00;99.90;;;;;;5018454;28;21002;-58
2021/03/01 03:28:19;;;;;;;13.60;7.03;;;3.90;99.90;;;;;;5034220;28;20476;-58
2021/03/01 03:30:46;;;;;;;11.43;6.63;;;3.90;99.90;;;;;;5041236;28;20481;-56
2021/03/01 03:33:14;;;;;;;12.20;6.33;;;3.90;99.90;;;;;;5028666;28;21022;-58
2021/03/01 03:35:42;;;;;;;11.57;6.20;;;3.80;99.90;;;;;;5044099;28;20553;-58
2021/03/01 03:38:19;;;;;;;10.47;6.20;;;3.90;99.90;;;;;;5044884;28;20479;-58
2021/03/01 03:40:51;;;;;;;9.90;5.93;;;3.90;99.90;;;;;;5044675;28;20878;-58
2021/03/01 03:43:21;;;;;;;10.00;5.57;;;3.90;99.90;;;;;;5044972;28;20485;-57
2021/03/01 03:45:52;;;;;;;10.83;6.20;;;3.90;99.90;;;;;;5044643;28;20470;-57
2021/03/01 03:48:25;;;;;;;12.77;6.57;;;3.80;99.90;;;;;;5043369;28;20485;-59
2021/03/01 03:50:55;;;;;;;10.90;6.13;;;3.80;99.90;;;;;;5043835;28;20494;-57
2021/03/01 03:53:27;;;;;;;10.43;5.97;;;3.80;99.90;;;;;;5054669;28;20546;-55
2021/03/01 03:55:57;;;;;;;13.57;6.27;;;3.80;99.90;;;;;;5062152;28;20549;-58
2021/03/01 03:58:30;;;;;;;11.77;6.50;;;3.80;99.90;;;;;;5028855;28;20485;-58
2021/03/01 04:01:01;;;;;;;11.93;6.30;;;3.80;99.90;;;;;;5036440;28;20539;-57
2021/03/01 04:03:31;;;;;;;14.80;6.03;;;3.80;99.90;;;;;;5032803;28;20491;-56
2021/03/01 04:06:00;;;;;;;15.00;7.00;;;4.10;99.90;;;;;;5035292;28;20523;-55
2021/03/01 04:08:30;;;;;;;19.87;8.17;;;4.10;99.90;;;;;;5052637;28;20762;-59
2021/03/01 04:10:59;;;;;;;17.70;8.00;;;4.00;99.90;;;;;;5059758;28;20579;-57
2021/03/01 04:13:29;;;;;;;19.33;8.80;;;4.00;99.90;;;;;;5064853;28;20988;-59
2021/03/01 04:15:56;;;;;;;19.37;8.13;;;3.90;99.90;;;;;;5064772;28;20531;-54
2021/03/01 04:18:26;;;;;;;16.43;7.57;;;4.00;99.90;;;;;;5065153;28;20575;-57
2021/03/01 04:20:56;;;;;;;19.53;7.87;;;4.00;99.90;;;;;;5065064;28;20547;-56
2021/03/01 04:23:25;;;;;;;18.70;8.30;;;4.00;99.90;;;;;;5047654;28;20504;-54
2021/03/01 04:25:53;;;;;;;23.30;8.83;;;3.90;99.90;;;;;;5036288;28;20577;-56
2021/03/01 04:28:21;;;;;;;15.37;8.10;;;3.90;99.90;;;;;;5043142;28;20502;-58
2021/03/01 04:30:50;;;;;;;20.27;9.80;;;3.80;99.90;;;;;;5036608;28;20987;-54
2021/03/01 04:33:19;;;;;;;17.40;8.97;;;3.80;99.90;;;;;;5036600;28;20293;-55
2021/03/01 04:35:49;;;;;;;17.20;8.77;;;3.80;99.90;;;;;;5046001;28;20530;-56
2021/03/01 04:38:16;;;;;;;17.03;8.37;;;3.80;99.90;;;;;;5048970;28;20481;-54
2021/03/01 04:40:44;;;;;;;16.77;7.93;;;3.80;99.90;;;;;;5048921;28;20968;-57
2021/03/01 04:43:12;;;;;;;14.63;7.73;;;3.80;99.90;;;;;;5039834;28;20548;-53
2021/03/01 04:45:41;;;;;;;15.10;7.73;;;3.70;99.90;;;;;;5054911;28;20472;-55
2021/03/01 04:48:11;;;;;;;15.27;7.93;;;3.60;99.90;;;;;;5048855;28;20986;-57
2021/03/01 04:50:41;;;;;;;12.43;7.10;;;3.60;99.90;;;;;;5048971;28;20534;-57
2021/03/01 04:53:09;;;;;;;14.07;6.83;;;3.60;99.90;;;;;;5048719;28;20562;-55
2021/03/01 04:55:37;;;;;;;12.47;6.87;;;3.60;99.90;;;;;;5041317;28;21005;-57
2021/03/01 04:58:05;;;;;;;14.07;6.93;;;3.60;99.90;;;;;;5047778;28;20809;-57
2021/03/01 05:00:33;;;;;;;14.20;6.20;;;3.70;99.90;;;;;;5051497;28;20564;-57
2021/03/01 05:03:02;;;;;;;16.03;7.87;;;3.90;99.90;;;;;;5060829;28;20539;-55
2021/03/01 05:05:31;;;;;;;14.00;7.10;;;4.10;99.90;;;;;;5050234;28;20552;-57
2021/03/01 05:08:02;;;;;;;16.63;8.13;;;4.00;99.90;;;;;;5063631;28;20564;-58
2021/03/01 05:10:31;;;;;;;14.73;7.93;;;4.10;99.90;;;;;;5035412;28;20759;-55
2021/03/01 05:13:00;;;;;;;14.87;7.47;;;3.90;99.90;;;;;;5030613;28;20853;-57
2021/03/01 05:15:27;;;;;;;14.00;7.23;;;3.90;99.90;;;;;;5027755;28;20474;-57
2021/03/01 05:17:54;;;;;;;15.90;7.93;;;4.20;99.90;;;;;;5028535;28;20502;-54
2021/03/01 05:20:22;;;;;;;16.30;8.00;;;4.30;99.90;;;;;;5028083;28;21002;-57
2021/03/01 05:22:50;;;;;;;17.77;8.90;;;4.20;99.90;;;;;;5031109;28;20532;-56
2021/03/01 05:25:18;;;;;;;15.47;8.23;;;4.20;99.90;;;;;;5035528;28;20530;-57
2021/03/01 05:27:45;;;;;;;15.37;7.77;;;4.20;99.90;;;;;;5035782;28;20520;-56
2021/03/01 05:30:15;;;;;;;16.73;8.60;;;4.10;99.90;;;;;;5054939;28;20501;-58
2021/03/01 05:32:43;;;;;;;24.10;7.90;;;4.40;99.90;;;;;;5067969;28;20554;-58
2021/03/01 05:35:12;;;;;;;17.43;8.83;;;4.40;99.90;;;;;;5068865;28;20508;-55
2021/03/01 05:37:40;;;;;;;19.50;9.93;;;4.40;99.90;;;;;;5067896;28;20473;-57
2021/03/01 05:40:09;;;;;;;15.40;8.47;;;4.10;99.90;;;;;;5067832;28;20557;-56
2021/03/01 05:42:37;;;;;;;18.07;9.37;;;4.00;99.90;;;;;;5062230;28;20573;-57
2021/03/01 05:45:08;;;;;;;17.17;9.00;;;3.90;99.90;;;;;;5049286;28;20238;-58
2021/03/01 05:47:38;;;;;;;15.17;8.70;;;4.10;99.90;;;;;;5054136;28;20478;-57
2021/03/01 05:50:09;;;;;;;15.30;8.33;;;3.90;99.90;;;;;;5051872;28;20479;-55
2021/03/01 05:52:40;;;;;;;12.73;7.40;;;3.80;99.90;;;;;;5057125;28;21091;-53
2021/03/01 05:55:10;;;;;;;14.70;8.00;;;3.70;99.90;;;;;;5034602;28;20488;-54
2021/03/01 05:57:39;;;;;;;12.43;6.93;;;3.70;99.90;;;;;;5048148;28;20477;-56
2021/03/01 06:00:09;;;;;;;14.77;7.70;;;3.70;99.90;;;;;;5035449;28;20692;-58
2021/03/01 06:02:37;;;;;;;13.27;7.30;;;3.80;99.90;;;;;;5045036;28;20484;-57
2021/03/01 06:05:06;;;;;;;14.93;8.30;;;3.70;99.90;;;;;;5046412;28;20488;-55
2021/03/01 06:07:35;;;;;;;14.77;8.27;;;3.70;99.90;;;;;;5041159;28;20485;-58
2021/03/01 06:10:06;;;;;;;17.40;7.60;;;3.70;99.90;;;;;;5047295;28;21244;-57
2021/03/01 06:12:34;;;;;;;15.00;8.10;;;3.70;99.90;;;;;;5047176;28;20876;-55
2021/03/01 06:15:03;;;;;;;15.67;8.30;;;3.70;99.90;;;;;;5027464;28;20490;-57
2021/03/01 06:17:31;;;;;;;15.03;8.33;;;3.60;99.90;;;;;;5032397;28;20575;-55
2021/03/01 06:19:59;;;;;;;13.63;7.67;;;3.60;99.90;;;;;;5032922;28;20998;-57
2021/03/01 06:22:41;;;;;;;14.90;8.37;;;3.60;99.90;;;;;;5033115;28;20483;-54
2021/03/01 06:25:12;;;;;;;15.30;7.67;;;3.60;99.90;;;;;;5037116;28;20565;-56
2021/03/01 06:27:52;;;;;;;14.20;7.50;;;3.60;99.90;;;;;;5046004;28;20486;-58
2021/03/01 06:30:21;;;;;;;14.50;7.53;;;3.60;99.90;;;;;;5052060;28;20466;-54
2021/03/01 06:33:11;;;;;;;16.20;8.30;;;3.60;99.90;;;;;;5056712;28;20481;-58
2021/03/01 06:35:44;;;;;;;14.37;8.43;;;3.70;99.90;;;;;;5039541;28;20901;-55
2021/03/01 06:38:30;;;;;;;14.50;8.10;;;3.70;99.90;;;;;;5021992;28;20530;-55
2021/03/01 06:41:14;;;;;;;13.93;7.67;;;3.70;99.90;;;;;;5025981;28;21059;-53
2021/03/01 06:43:56;;;;;;;15.30;8.33;;;3.70;99.90;;;;;;5016448;28;20566;-56
2021/03/01 06:46:33;;;;;;;13.10;7.70;;;3.70;99.90;;;;;;5022917;28;20854;-56
2021/03/01 06:49:12;;;;;;;11.80;7.07;;;3.70;99.90;;;;;;5023072;28;20541;-56
2021/03/01 06:51:41;;;;;;;14.37;7.93;;;3.70;99.90;;;;;;5020305;28;20562;-57
2021/03/01 06:54:12;;;;;;;14.67;7.67;;;3.70;99.90;;;;;;5036916;28;20465;-54
2021/03/01 06:56:40;;;;;;;13.00;7.33;;;3.60;99.90;;;;;;5043346;28;20481;-57
2021/03/01 06:59:14;;;;;;;14.23;7.70;;;3.70;99.90;;;;;;5037058;28;20574;-58
2021/03/01 07:01:53;;;;;;;16.27;8.50;;;3.80;99.90;;;;;;5043523;28;20833;-55
2021/03/01 07:04:23;;;;;;;15.77;7.90;;;3.80;99.90;;;;;;5045902;28;20495;-55
2021/03/01 07:06:52;;;;;;;13.30;7.77;;;3.80;99.90;;;;;;5045447;28;20578;-57
2021/03/01 07:09:22;;;;;;;15.20;8.30;;;3.80;99.90;;;;;;5045699;28;20504;-58
2021/03/01 07:11:49;;;;;;;13.57;7.97;;;3.80;99.90;;;;;;5044126;28;20519;-55
2021/03/01 07:14:21;;;;;;;13.30;8.07;;;3.80;99.90;;;;;;5044278;28;20552;-56
2021/03/01 07:16:51;;;;;;;13.20;7.90;;;3.70;99.90;;;;;;5036580;28;20479;-53
2021/03/01 07:19:21;;;;;;;14.33;8.23;;;3.80;99.90;;;;;;5038333;28;20564;-53
2021/03/01 07:21:51;;;;;;;14.47;7.60;;;3.90;99.90;;;;;;5039484;28;21042;-56
2021/03/01 07:24:21;;;;;;;13.27;7.63;;;3.90;99.90;;;;;;5036472;28;21058;-55
2021/03/01 07:26:49;;;;;;;12.83;7.07;;;3.90;99.90;;;;;;5023366;28;20869;-56
2021/03/01 07:29:20;;;;;;;13.43;7.00;;;4.00;99.90;;;;;;5035434;28;20502;-53
2021/03/01 07:31:51;;;;;;;13.90;8.07;;;4.00;99.90;;;;;;5028564;28;20463;-54
2021/03/01 07:34:19;;;;;;;15.17;7.87;;;3.90;99.90;;;;;;5022128;28;20480;-58
2021/03/01 07:36:47;;;;;;;11.37;6.90;;;3.80;99.90;;;;;;5024453;28;21082;-56
2021/03/01 07:39:15;;;;;;;13.63;7.20;;;3.80;99.90;;;;;;5021801;28;20487;-56
2021/03/01 07:41:42;;;;;;;14.27;7.63;;;3.80;99.90;;;;;;5009333;28;20486;-55
2021/03/01 07:44:10;;;;;;;13.30;7.50;;;3.80;99.90;;;;;;5035474;28;20592;-56
2021/03/01 07:46:43;;;;;;;12.33;7.20;;;3.80;99.90;;;;;;5015524;28;20919;-54
2021/03/01 07:49:13;;;;;;;14.17;7.53;;;3.90;99.90;;;;;;5024539;28;20509;-56
2021/03/01 07:51:43;;;;;;;15.40;7.63;;;3.90;99.90;;;;;;5015673;28;20912;-56
2021/03/01 07:54:12;;;;;;;15.57;8.47;;;4.00;99.90;;;;;;5014774;28;20547;-54
2021/03/01 07:56:50;;;;;;;16.23;8.20;;;4.00;99.90;;;;;;5024226;28;20832;-58
2021/03/01 07:59:32;;;;;;;13.83;7.60;;;3.90;99.90;;;;;;5033516;28;20466;-58
2021/03/01 08:02:22;;;;;;;15.33;8.03;;;3.90;99.90;;;;;;5040207;28;20495;-54
2021/03/01 08:04:50;;;;;;;14.23;8.23;;;3.90;99.90;;;;;;5030859;28;20530;-56
2021/03/01 08:07:18;;;;;;;14.70;8.30;;;3.90;99.90;;;;;;5050529;28;20547;-57
2021/03/01 08:09:52;;;;;;;13.37;7.40;;;3.90;99.90;;;;;;5032796;28;20470;-55
2021/03/01 08:12:58;;;;;;;12.73;7.87;;;3.90;99.90;;;;;;5025204;28;20822;-57
2021/03/01 08:15:30;;;;;;;12.77;6.90;;;3.90;99.90;;;;;;5034026;28;20502;-55
2021/03/01 08:18:00;;;;;;;12.23;7.80;;;3.90;99.90;;;;;;5033093;28;20501;-57
2021/03/01 08:21:00;;;;;;;12.30;6.70;;;4.00;99.90;;;;;;5028848;28;20495;-55
2021/03/01 08:23:38;;;;;;;14.87;7.20;;;4.00;99.90;;;;;;5022677;28;20505;-57
2021/03/01 08:26:07;;;;;;;12.53;7.23;;;4.00;99.90;;;;;;5024686;28;20467;-56
2021/03/01 08:28:56;;;;;;;14.20;8.40;;;4.00;99.90;;;;;;5021079;28;20842;-55
2021/03/01 08:31:43;;;;;;;14.30;8.07;;;3.90;99.90;;;;;;5038693;28;21161;-56
2021/03/01 08:34:41;;;;;;;12.87;6.90;;;3.90;99.90;;;;;;5029323;28;20489;-55
2021/03/01 08:37:08;;;;;;;14.17;6.17;;;3.90;99.90;;;;;;4980591;28;20556;-55
2021/03/01 08:40:01;;;;;;;13.00;7.90;;;3.90;99.90;;;;;;5034317;28;20533;-56
2021/03/01 08:42:59;;;;;;;11.67;6.73;;;4.00;99.90;;;;;;5033079;28;20489;-58
2021/03/01 08:45:42;;;;;;;15.87;7.60;;;4.10;99.90;;;;;;5029943;28;20475;-57
2021/03/01 08:48:18;;;;;;;12.00;7.80;;;4.20;99.90;;;;;;5039818;28;20535;-56
2021/03/01 08:50:50;;;;;;;12.30;7.20;;;4.30;99.90;;;;;;5011357;28;21090;-58
2021/03/01 08:53:24;;;;;;;10.87;7.10;;;4.30;99.90;;;;;;5025973;28;20496;-57
2021/03/01 08:55:52;;;;;;;11.40;6.63;;;4.30;99.90;;;;;;5022192;28;20478;-55
2021/03/01 08:58:21;;;;;;;12.70;7.07;;;4.30;99.90;;;;;;5041927;28;20508;-57
2021/03/01 09:00:52;;;;;;;13.60;7.63;;;4.30;99.90;;;;;;5055578;28;20939;-54
2021/03/01 09:03:29;;;;;;;11.37;6.60;;;4.30;99.90;;;;;;5005245;28;20494;-57
2021/03/01 09:06:06;;;;;;;14.43;7.77;;;4.30;99.90;;;;;;5004942;28;20251;-56
2021/03/01 09:08:36;;;;;;;11.53;7.33;;;4.30;99.90;;;;;;5019348;28;20561;-57
2021/03/01 09:11:06;;;;;;;12.40;7.40;;;4.30;99.90;;;;;;5019553;28;21052;-58
2021/03/01 09:13:36;;;;;;;12.40;7.83;;;4.20;99.90;;;;;;5026645;28;20489;-56
2021/03/01 09:16:10;;;;;;;13.50;7.23;;;4.20;99.90;;;;;;5031476;28;20462;-54
2021/03/01 09:18:39;;;;;;;13.57;7.33;;;4.20;99.90;;;;;;5018187;28;20538;-57
2021/03/01 09:21:11;;;;;;;14.93;8.23;;;4.20;99.90;;;;;;5026033;28;20578;-53
2021/03/01 09:23:43;;;;;;;12.47;7.53;;;4.20;99.90;;;;;;5030884;28;20297;-57
2021/03/01 09:26:25;;;;;;;14.40;7.73;;;4.20;99.90;;;;;;5047386;28;20480;-58
2021/03/01 09:28:55;;;;;;;14.77;7.80;;;4.30;99.90;;;;;;5047089;28;20540;-57
2021/03/01 09:31:31;;;;;;;14.00;7.57;;;4.50;99.90;;;;;;5051293;28;20517;-55
2021/03/01 09:33:59;;;;;;;12.37;7.37;;;4.50;99.90;;;;;;5028341;28;20541;-56
2021/03/01 09:36:32;;;;;;;10.80;6.90;;;4.50;99.90;;;;;;5038625;28;20243;-55
2021/03/01 09:39:00;;;;;;;12.97;7.40;;;4.50;99.90;;;;;;5035159;28;20491;-55
2021/03/01 09:41:47;;;;;;;11.03;6.77;;;4.50;99.90;;;;;;5027926;28;20493;-56
2021/03/01 09:44:23;;;;;;;12.43;7.00;;;4.60;99.90;;;;;;5041747;28;20235;-57
2021/03/01 09:46:53;;;;;;;11.93;7.03;;;4.70;99.90;;;;;;5038367;28;20480;-56
2021/03/01 09:49:22;;;;;;;12.57;7.17;;;4.70;99.90;;;;;;5037928;28;20243;-53
2021/03/01 09:51:52;;;;;;;11.70;7.00;;;4.70;99.90;;;;;;5050663;28;20746;-55
2021/03/01 09:54:22;;;;;;;13.07;7.70;;;4.70;99.90;;;;;;5058229;28;20243;-57
2021/03/01 09:56:54;;;;;;;13.10;7.47;;;4.80;99.90;;;;;;5035595;28;20299;-57
2021/03/01 09:59:31;;;;;;;11.80;6.97;;;4.90;99.90;;;;;;5026958;28;20240;-57
2021/03/01 10:02:11;;;;;;;13.20;7.90;;;4.90;99.90;;;;;;5045201;28;20503;-56
2021/03/01 10:04:40;;;;;;;13.40;7.77;;;4.90;99.90;;;;;;5044393;28;20491;-58
2021/03/01 10:07:29;;;;;;;14.20;7.57;;;4.90;99.90;;;;;;5043602;28;20486;-57
2021/03/01 10:09:57;;;;;;;11.70;7.47;;;5.00;99.90;;;;;;5037142;28;20255;-58
2021/03/01 10:12:26;;;;;;;11.53;7.43;;;5.00;99.90;;;;;;5040052;28;20787;-58
2021/03/01 10:14:58;;;;;;;11.73;7.70;;;5.20;99.90;;;;;;5039685;28;20725;-58
2021/03/01 10:17:28;;;;;;;13.23;7.83;;;5.20;99.90;;;;;;5046120;28;20867;-55
2021/03/01 10:20:05;;;;;;;12.40;7.40;;;5.30;99.90;;;;;;5046477;28;20744;-58
2021/03/01 10:23:04;;;;;;;13.57;8.03;;;5.30;99.90;;;;;;5031746;28;20259;-56
2021/03/01 10:25:39;;;;;;;13.17;7.77;;;5.30;99.90;;;;;;5035643;28;20228;-58
2021/03/01 10:28:29;;;;;;;11.73;7.37;;;5.30;99.90;;;;;;5039671;28;20726;-56
2021/03/01 10:31:03;;;;;;;10.90;6.87;;;5.50;99.90;;;;;;5036540;28;20267;-57
2021/03/01 10:33:55;;;;;;;13.93;7.20;;;5.50;99.90;;;;;;5033649;28;20762;-58
2021/03/01 10:36:25;;;;;;;10.57;6.90;;;5.60;99.90;;;;;;5037255;28;20484;-55
2021/03/01 10:39:04;;;;;;;10.90;7.10;;;5.70;99.90;;;;;;5035613;28;20239;-57
2021/03/01 10:41:34;;;;;;;13.10;7.37;;;5.80;99.90;;;;;;5037500;28;20235;-59
2021/03/01 10:44:06;;;;;;;11.40;7.27;;;5.90;99.90;;;;;;5034573;28;20227;-58
2021/03/01 10:46:38;;;;;;;13.93;7.37;;;5.90;99.90;;;;;;5037337;28;20231;-58
2021/03/01 10:49:19;;;;;;;11.77;7.03;;;5.80;99.90;;;;;;5045021;28;20246;-57
2021/03/01 10:51:48;;;;;;;12.27;7.80;;;5.80;99.90;;;;;;5036837;28;20592;-58
2021/03/01 10:54:16;;;;;;;12.43;7.23;;;5.90;99.90;;;;;;5036020;28;20958;-55
2021/03/01 10:56:43;;;;;;;12.17;7.73;;;6.10;99.90;;;;;;5050566;28;20314;-58
2021/03/01 10:59:11;;;;;;;11.53;7.47;;;6.20;99.90;;;;;;5041406;28;20259;-57
2021/03/01 11:01:41;;;;;;;12.87;7.90;;;6.30;99.90;;;;;;5034028;28;20251;-57
2021/03/01 11:04:11;;;;;;;12.33;7.53;;;6.30;99.90;;;;;;5026564;28;20283;-57
2021/03/01 11:06:39;;;;;;;10.00;6.87;;;6.40;99.90;;;;;;5016884;28;20236;-55
2021/03/01 11:09:09;;;;;;;10.87;7.30;;;6.50;99.90;;;;;;5012940;28;20261;-55
2021/03/01 11:11:38;;;;;;;10.20;7.50;;;6.50;99.90;;;;;;5034411;28;20236;-57
2021/03/01 11:14:07;;;;;;;13.20;7.60;;;6.50;99.90;;;;;;5035136;28;20264;-54
2021/03/01 11:16:35;;;;;;;12.53;8.10;;;6.50;99.90;;;;;;5027944;28;20413;-56
2021/03/01 11:19:04;;;;;;;11.47;8.13;;;6.60;99.90;;;;;;5040067;28;20755;-55
2021/03/01 11:21:32;;;;;;;13.70;7.73;;;6.60;99.90;;;;;;5036823;28;20235;-53
2021/03/01 11:23:59;;;;;;;14.07;8.23;;;6.50;99.90;;;;;;5037125;28;21000;-56
2021/03/01 11:26:27;;;;;;;14.03;8.30;;;6.50;99.90;;;;;;5034410;28;20279;-54
2021/03/01 11:28:56;;;;;;;14.20;8.50;;;6.50;99.90;;;;;;5036956;28;20644;-56
2021/03/01 11:31:24;;;;;;;11.83;7.77;;;6.50;99.90;;;;;;5039358;28;20240;-54
2021/03/01 11:33:52;;;;;;;13.63;7.90;;;6.60;99.90;;;;;;5042848;28;20243;-54
2021/03/01 11:36:20;;;;;;;12.60;8.17;;;6.70;99.90;;;;;;5037811;28;20232;-53
2021/03/01 11:38:47;;;;;;;11.17;7.67;;;6.80;99.90;;;;;;5042628;28;20468;-54
2021/03/01 11:41:15;;;;;;;12.50;7.80;;;7.00;99.90;;;;;;5039743;28;20343;-56
2021/03/01 11:43:48;;;;;;;13.77;8.47;;;7.00;99.90;;;;;;5040998;28;20716;-56
2021/03/01 11:46:16;;;;;;;13.23;8.67;;;7.10;99.90;;;;;;5042020;28;20238;-56
2021/03/01 11:48:44;;;;;;;17.67;8.57;;;7.00;99.90;;;;;;5037688;28;20240;-56
2021/03/01 11:51:12;;;;;;;13.70;8.70;;;7.10;99.90;;;;;;5026308;28;20340;-55
2021/03/01 11:53:40;;;;;;;11.97;8.13;;;7.10;99.90;;;;;;5035287;28;20243;-56
2021/03/01 11:56:08;;;;;;;11.67;8.33;;;7.20;99.90;;;;;;5025517;28;20653;-56
2021/03/01 11:58:36;;;;;;;11.80;7.97;;;7.20;99.90;;;;;;5027838;28;20253;-54
2021/03/01 12:01:05;;;;;;;12.50;8.70;;;7.30;99.90;;;;;;5032373;28;20297;-54
2021/03/01 12:03:34;;;;;;;11.70;7.90;;;7.40;99.90;;;;;;5024229;28;20395;-54
2021/03/01 12:06:03;;;;;;;13.23;9.03;;;7.30;99.90;;;;;;5024194;28;20849;-56
2021/03/01 12:08:32;;;;;;;13.73;8.83;;;7.40;99.90;;;;;;5021903;28;20236;-55
2021/03/01 12:11:00;;;;;;;14.13;8.93;;;7.40;99.90;;;;;;5030415;28;20886;-56
2021/03/01 12:13:27;;;;;;;13.83;8.67;;;7.60;99.90;;;;;;5027497;28;20256;-55
2021/03/01 12:15:55;;;;;;;12.23;8.37;;;7.70;99.90;;;;;;5024974;28;20255;-53
2021/03/01 12:18:22;;;;;;;12.67;8.27;;;7.80;99.90;;;;;;5022796;28;20737;-54
2021/03/01 12:20:50;;;;;;;10.20;7.47;;;8.00;99.90;;;;;;5023647;28;20711;-53
2021/03/01 12:23:17;;;;;;;11.43;7.50;;;8.00;99.90;;;;;;5024275;28;20327;-54
2021/03/01 12:25:45;;;;;;;9.33;7.00;;;8.00;99.90;;;;;;5025491;28;20345;-56
2021/03/01 12:28:12;;;;;;;12.73;8.30;;;8.00;99.90;;;;;;5024869;28;20756;-53
2021/03/01 12:30:40;;;;;;;10.63;7.77;;;8.10;99.90;;;;;;5023747;28;20272;-56
2021/03/01 12:33:08;;;;;;;12.57;8.37;;;8.20;99.90;;;;;;5024243;28;20227;-56
2021/03/01 12:35:37;;;;;;;10.80;8.33;;;8.20;99.90;;;;;;5037144;28;20667;-56
2021/03/01 12:38:05;;;;;;;9.37;6.43;;;8.20;99.90;;;;;;5035746;28;20783;-55
2021/03/01 12:40:33;;;;;;;12.07;7.30;;;8.20;99.90;;;;;;5017486;28;20241;-56
2021/03/01 12:43:03;;;;;;;10.67;7.47;;;8.20;99.90;;;;;;5016746;28;20701;-54
2021/03/01 12:45:32;;;;;;;10.97;7.50;;;8.10;99.90;;;;;;5015697;28;20237;-55
2021/03/01 12:47:59;;;;;;;9.80;6.83;;;8.10;99.90;;;;;;5022086;28;20394;-54
2021/03/01 12:50:27;;;;;;;9.13;6.67;;;8.10;99.90;;;;;;5038054;28;20239;-53
2021/03/01 12:52:54;;;;;;;10.90;6.93;;;8.00;99.90;;;;;;5037549;28;20718;-56
2021/03/01 12:55:22;;;;;;;10.13;6.90;;;7.90;99.90;;;;;;5035407;28;20354;-56
2021/03/01 12:57:50;;;;;;;9.53;6.83;;;7.90;99.90;;;;;;5039742;28;20319;-55
2021/03/01 13:00:20;;;;;;;11.37;6.93;;;7.90;99.90;;;;;;5031725;28;20260;-53
2021/03/01 13:02:47;;;;;;;10.00;7.03;;;7.90;99.90;;;;;;5019489;28;21835;-53
2021/03/01 13:05:16;;;;;;;11.50;8.40;;;8.00;99.90;;;;;;5019414;28;20240;-55
2021/03/01 13:07:43;;;;;;;10.70;7.20;;;8.00;99.90;;;;;;5010844;28;20232;-55